(°C)
15°
16°
17°
18°
19°
21°
22°
(°C)
15°
16°
17°
18°
19°
20°
22°
SV
SV
SV
SV
SV
SV
SV
(km/h)
9-20
10-21
10-20
11-20
11-20
11-20
12-20
(mm)
0
0
0
0
0
0
0
(%)
1
1
0
0
0
0
0

Elevația soarelui

/ 0.6°
sun-icon
UV 8
05:04
20:17
Primul pătrar (34°)
07:34
23:12

METAR pentru Barnstable (KHYA)

Ora Condiții Temperatură/
Punctul de rouă
Vânt Vizibilitate Vremea Nori Presiune Schimbă Brut
VFR 15°C / 13.9°C 220º 7kt >10km - Clear 1011 - KHYA 130856Z AUTO 22007KT 10SM CLR 15/14 A2987 RMK AO2 SLP116 T01500139 55001
VFR 15°C / 13.9°C 230º 6kt >10km - Scattered Clouds 700ft - KHYA 130841Z AUTO 23006KT 10SM SCT007 15/14 A2987 RMK AO2 T01500139
IFR 15°C / 14.4°C 240º 6kt >10km - Broken Clouds 600ft 1011 - KHYA 130756Z AUTO 24006KT 10SM BKN006 15/14 A2987 RMK AO2 SLP114 T01500144
IFR 15.6°C / 15°C 240º 5kt >10km - Broken Clouds 700ft - KHYA 130733Z AUTO 24005KT 10SM BKN007 16/15 A2987 RMK AO2 T01560150
VFR 15.6°C / 14.4°C 230º 7kt >10km - Scattered Clouds 700ft - KHYA 130720Z AUTO 23007KT 10SM SCT007 16/14 A2987 RMK AO2 T01560144
VFR 15°C / 13.9°C 230º 6kt >10km - Clear 1011 - KHYA 130656Z AUTO 23006KT 10SM CLR 15/14 A2987 RMK AO2 SLP117 T01500139
VFR 13.9°C / 13.3°C 230º 5kt >10km - Clear 1011 - KHYA 130556Z AUTO 23005KT 10SM CLR 14/13 A2987 RMK AO2 SLP117 T01390133 10167 20133 58002
VFR 13.3°C / 12.8°C 250º 4kt >10km - Clear 1012 - KHYA 130456Z AUTO 25004KT 10SM CLR 13/13 A2988 RMK AO2 SLP121 T01330128 401940133
VFR 13.9°C / 13.3°C 230º 5kt >10km - Clear 1011 - KHYA 130256Z AUTO 23005KT 10SM CLR 14/13 A2988 RMK AO2 SLP119 T01390133 51015
VFR 15°C / 13.9°C 230º 5kt >10km - Clear 1011 - KHYA 130156Z 23005KT 10SM CLR 15/14 A2988 RMK AO2 SLP118 T01500139
VFR 16.1°C / 13.9°C 220º 6kt >10km - Clear 1011 - KHYA 130056Z 22006KT 10SM CLR 16/14 A2986 RMK AO2 SLP111 T01610139
VFR 16.7°C / 13.9°C 200º 5kt >10km - Clear 1010 - KHYA 122356Z 20005KT 10SM CLR 17/14 A2984 RMK AO2 SLP104 T01670139 10194 20161 58001
VFR 17.2°C / 13.9°C 190º 7kt >10km - Clear 1010 - KHYA 122256Z 19007KT 10SM CLR 17/14 A2984 RMK AO2 SLP107 T01720139
VFR 17.8°C / 14.4°C 170º 6kt >10km - Scattered Clouds 2400ft 1010 - KHYA 122156Z 17006KT 10SM SCT024 18/14 A2984 RMK AO2 SLP104 T01780144
VFR 17.8°C / 14.4°C 180º 4kt >10km - Scattered Clouds 2000ft - KHYA 122121Z 18004KT 10SM SCT020 18/14 A2984 RMK AO2 T01780144
MVFR 18.9°C / 13.9°C variable 0kt >10km - Scattered Clouds 2000ft 1010 - KHYA 122056Z 00000KT 10SM SCT020 BKN025 19/14 A2984 RMK AO2 SLP105 T01890139 58009
MVFR 17.8°C / 13.9°C 220º 3kt >10km - Broken Clouds 2200ft - KHYA 122035Z 22003KT 10SM BKN022 BKN031 18/14 A2984 RMK AO2 T01780139
MVFR 17.8°C / 14.4°C variable 0kt >10km - Scattered Clouds 1600ft 1011 - KHYA 121856Z 00000KT 10SM SCT016 OVC023 18/14 A2986 RMK AO2 SLP111 T01780144
MVFR 16.7°C / 14.4°C variable 3kt >10km - Scattered Clouds 800ft - KHYA 121824Z VRB03KT 10SM SCT008 BKN016 OVC028 17/14 A2986 RMK AO2 T01670144
IFR 16.1°C / 14.4°C 160º variable 006º to 011º 3kt >10km - Overcast 800ft 1011 - KHYA 121756Z 16003KT 10SM OVC008 16/14 A2987 RMK AO2 CIG 006V011 SLP114 60012 T01610144 10172 20144 56003
IFR 16.7°C / 13.9°C variable 0kt >10km 0.25mm precipitation Overcast 500ft 1011 - KHYA 121656Z 00000KT 10SM OVC005 17/14 A2987 RMK AO2 RAE21 SLP114 P0001 T01670139
IFR 15.6°C / 14.4°C variable 0kt 8000m Light Rain Mist 0.13mm precipitation Broken Clouds 700ft 1011 - KHYA 121556Z 00000KT 5SM -RA BR BKN007 OVC011 16/14 A2987 RMK AO2 RAB54 CIG 005V008 SLP117 P0000 T01560144
IFR 15.6°C / 14.4°C 70º variable 003º to 010º 3kt 6400m Mist 0.13mm precipitation Overcast 700ft 1011 - KHYA 121456Z 07003KT 4SM BR OVC007 16/14 A2988 RMK AO2 RAB27E45 CIG 003V010 SLP118 P0000 60011 T01560144 50000
IFR 15.6°C / 13.9°C 360º variable 004º to 012º 3kt 4800m Mist 0.25mm precipitation Broken Clouds 700ft 1011 - KHYA 121356Z 36003KT 3SM BR BKN007 OVC015 16/14 A2987 RMK AO2 RAE39 CIG 004V012 SLP115 P0001 T01560139

VFR

15°C / 13.9°C

[Mai mult]
Vânt 220º 7kt
Vizibilitate >10km
Vremea -
Nori Clear
Presiune 1011
Schimbă -
Brut KHYA 130856Z AUTO 22007KT 10SM CLR 15/14 A2987 RMK AO2 SLP116 T01500139 55001

VFR

15°C / 13.9°C

[Mai mult]
Vânt 230º 6kt
Vizibilitate >10km
Vremea -
Nori Scattered Clouds 700ft
Presiune
Schimbă -
Brut KHYA 130841Z AUTO 23006KT 10SM SCT007 15/14 A2987 RMK AO2 T01500139

IFR

15°C / 14.4°C

[Mai mult]
Vânt 240º 6kt
Vizibilitate >10km
Vremea -
Nori Broken Clouds 600ft
Presiune 1011
Schimbă -
Brut KHYA 130756Z AUTO 24006KT 10SM BKN006 15/14 A2987 RMK AO2 SLP114 T01500144

IFR

15.6°C / 15°C

[Mai mult]
Vânt 240º 5kt
Vizibilitate >10km
Vremea -
Nori Broken Clouds 700ft
Presiune
Schimbă -
Brut KHYA 130733Z AUTO 24005KT 10SM BKN007 16/15 A2987 RMK AO2 T01560150

VFR

15.6°C / 14.4°C

[Mai mult]
Vânt 230º 7kt
Vizibilitate >10km
Vremea -
Nori Scattered Clouds 700ft
Presiune
Schimbă -
Brut KHYA 130720Z AUTO 23007KT 10SM SCT007 16/14 A2987 RMK AO2 T01560144

VFR

15°C / 13.9°C

[Mai mult]
Vânt 230º 6kt
Vizibilitate >10km
Vremea -
Nori Clear
Presiune 1011
Schimbă -
Brut KHYA 130656Z AUTO 23006KT 10SM CLR 15/14 A2987 RMK AO2 SLP117 T01500139

VFR

13.9°C / 13.3°C

[Mai mult]
Vânt 230º 5kt
Vizibilitate >10km
Vremea -
Nori Clear
Presiune 1011
Schimbă -
Brut KHYA 130556Z AUTO 23005KT 10SM CLR 14/13 A2987 RMK AO2 SLP117 T01390133 10167 20133 58002

VFR

13.3°C / 12.8°C

[Mai mult]
Vânt 250º 4kt
Vizibilitate >10km
Vremea -
Nori Clear
Presiune 1012
Schimbă -
Brut KHYA 130456Z AUTO 25004KT 10SM CLR 13/13 A2988 RMK AO2 SLP121 T01330128 401940133

VFR

13.9°C / 13.3°C

[Mai mult]
Vânt 230º 5kt
Vizibilitate >10km
Vremea -
Nori Clear
Presiune 1011
Schimbă -
Brut KHYA 130256Z AUTO 23005KT 10SM CLR 14/13 A2988 RMK AO2 SLP119 T01390133 51015

VFR

15°C / 13.9°C

[Mai mult]
Vânt 230º 5kt
Vizibilitate >10km
Vremea -
Nori Clear
Presiune 1011
Schimbă -
Brut KHYA 130156Z 23005KT 10SM CLR 15/14 A2988 RMK AO2 SLP118 T01500139

VFR

16.1°C / 13.9°C

[Mai mult]
Vânt 220º 6kt
Vizibilitate >10km
Vremea -
Nori Clear
Presiune 1011
Schimbă -
Brut KHYA 130056Z 22006KT 10SM CLR 16/14 A2986 RMK AO2 SLP111 T01610139

VFR

16.7°C / 13.9°C

[Mai mult]
Vânt 200º 5kt
Vizibilitate >10km
Vremea -
Nori Clear
Presiune 1010
Schimbă -
Brut KHYA 122356Z 20005KT 10SM CLR 17/14 A2984 RMK AO2 SLP104 T01670139 10194 20161 58001

VFR

17.2°C / 13.9°C

[Mai mult]
Vânt 190º 7kt
Vizibilitate >10km
Vremea -
Nori Clear
Presiune 1010
Schimbă -
Brut KHYA 122256Z 19007KT 10SM CLR 17/14 A2984 RMK AO2 SLP107 T01720139

VFR

17.8°C / 14.4°C

[Mai mult]
Vânt 170º 6kt
Vizibilitate >10km
Vremea -
Nori Scattered Clouds 2400ft
Presiune 1010
Schimbă -
Brut KHYA 122156Z 17006KT 10SM SCT024 18/14 A2984 RMK AO2 SLP104 T01780144

VFR

17.8°C / 14.4°C

[Mai mult]
Vânt 180º 4kt
Vizibilitate >10km
Vremea -
Nori Scattered Clouds 2000ft
Presiune
Schimbă -
Brut KHYA 122121Z 18004KT 10SM SCT020 18/14 A2984 RMK AO2 T01780144

MVFR

18.9°C / 13.9°C

[Mai mult]
Vânt variable 0kt
Vizibilitate >10km
Vremea -
Nori Scattered Clouds 2000ft
Presiune 1010
Schimbă -
Brut KHYA 122056Z 00000KT 10SM SCT020 BKN025 19/14 A2984 RMK AO2 SLP105 T01890139 58009

MVFR

17.8°C / 13.9°C

[Mai mult]
Vânt 220º 3kt
Vizibilitate >10km
Vremea -
Nori Broken Clouds 2200ft
Presiune
Schimbă -
Brut KHYA 122035Z 22003KT 10SM BKN022 BKN031 18/14 A2984 RMK AO2 T01780139

MVFR

17.8°C / 14.4°C

[Mai mult]
Vânt variable 0kt
Vizibilitate >10km
Vremea -
Nori Scattered Clouds 1600ft
Presiune 1011
Schimbă -
Brut KHYA 121856Z 00000KT 10SM SCT016 OVC023 18/14 A2986 RMK AO2 SLP111 T01780144

MVFR

16.7°C / 14.4°C

[Mai mult]
Vânt variable 3kt
Vizibilitate >10km
Vremea -
Nori Scattered Clouds 800ft
Presiune
Schimbă -
Brut KHYA 121824Z VRB03KT 10SM SCT008 BKN016 OVC028 17/14 A2986 RMK AO2 T01670144

IFR

16.1°C / 14.4°C

[Mai mult]
Vânt 160º variable 006º to 011º 3kt
Vizibilitate >10km
Vremea -
Nori Overcast 800ft
Presiune 1011
Schimbă -
Brut KHYA 121756Z 16003KT 10SM OVC008 16/14 A2987 RMK AO2 CIG 006V011 SLP114 60012 T01610144 10172 20144 56003

IFR

16.7°C / 13.9°C

[Mai mult]
Vânt variable 0kt
Vizibilitate >10km
Vremea 0.25mm precipitation
Nori Overcast 500ft
Presiune 1011
Schimbă -
Brut KHYA 121656Z 00000KT 10SM OVC005 17/14 A2987 RMK AO2 RAE21 SLP114 P0001 T01670139

IFR

15.6°C / 14.4°C

[Mai mult]
Vânt variable 0kt
Vizibilitate 8000m
Vremea Light Rain Mist 0.13mm precipitation
Nori Broken Clouds 700ft
Presiune 1011
Schimbă -
Brut KHYA 121556Z 00000KT 5SM -RA BR BKN007 OVC011 16/14 A2987 RMK AO2 RAB54 CIG 005V008 SLP117 P0000 T01560144

IFR

15.6°C / 14.4°C

[Mai mult]
Vânt 70º variable 003º to 010º 3kt
Vizibilitate 6400m
Vremea Mist 0.13mm precipitation
Nori Overcast 700ft
Presiune 1011
Schimbă -
Brut KHYA 121456Z 07003KT 4SM BR OVC007 16/14 A2988 RMK AO2 RAB27E45 CIG 003V010 SLP118 P0000 60011 T01560144 50000

IFR

15.6°C / 13.9°C

[Mai mult]
Vânt 360º variable 004º to 012º 3kt
Vizibilitate 4800m
Vremea Mist 0.25mm precipitation
Nori Broken Clouds 700ft
Presiune 1011
Schimbă -
Brut KHYA 121356Z 36003KT 3SM BR BKN007 OVC015 16/14 A2987 RMK AO2 RAE39 CIG 004V012 SLP115 P0001 T01560139

TAF pentru Barnstable (KHYA)

From till


From till Wind 240º 4kt. Visibility 10km or more. Sky Clear.
From till Wind 230º 8kt. Visibility 10km or more. Few Clouds 25000ft.
From till Wind 210º 12kt. Visibility 10km or more. Few Clouds 25000ft.
From till Wind 200º 9kt. Visibility 10km or more. Few Clouds 25000ft.

Brut: KHYA 130537Z 1306/1406 24004KT P6SM SKC FM131000 23008KT P6SM FEW250 FM131800 21012KT P6SM FEW250 FM140300 20009KT P6SM FEW250

Imagini satelitare actuale pentru: Barnstable, Statele Unite

Markerul cu locaţia este poziţionat pe Barnstable. [Mai mult]

Imaginea satelitară în timp real combină lumina vizibilă din timpul zilei cu radiația cu infraroșu din timpul nopții. Pe timp de noapte, imaginea nu este întunecată, deoarece radiația cu infraroșu poate detecta diferențele de temperatură. Din păcate, norii joși și ceața sunt greu de recunoscut față de temperatura de la sol, din această cauză putând fi invizibili pe timp de noapte. Imaginile satelitare Meteosat pentru Europa sunt actualizate în timp real din 5 în 5 minute. Imaginile GOES-16/GOES-17 (America de Nord și de Sud) și Himawari (Asia) sunt actualizate din 10 în 10 minute.

Radar și nowcast de precipitații pentru Barnstable

Markerul de locație este plasat în Barnstable. Această animație arată radarul de precipitații pentru ultima oră, precum și o 1h prognoză. Bruma și fulguiala pot fi invizibile pe radar. Intensitatea precipitațiilor este reprezentată prin culori, de la albastru deschis la violet închis.